Main page
METAR-TAF:

METAR-TAF

Airports :

Tunis, Tunisia

Tunis–Carthage International Airport

latitude: 36-50N, longitude: 010-14E, elevation: 3 m

Current weather observation

The report was made 37 minutes ago, at 22:00 UTC
Wind 4 kt from variable directions
Temperature 24°C
Humidity 44%
Pressure 1012 hPa
Visibility: 7000 m
Few clouds at a height of 2600 ft

METAR: DTTA 272200Z VRB04KT 7000 FEW026 24/11 Q1012 NOSIG

Time: 23:37 (22:37 UTC)

Forecast

The report was made 5 hours and 7 minutes ago, at 17:30 UTC
Forecast valid from 27 at 18 UTC to 28 at 18 UTC
Wind 10 kt from the South/Southeast
Visibility 10 km or more
Scattered clouds at a height of 2600 ft
Probability 30% :
Temporary
from 28 at 06 UTC to 28 at 10 UTC
Visibility: 4000 m
Few clouds at a height of 2300 ft, Towering cumulus.
light rain showers

TAF: DTTA 271730Z 2718/2818 15010KT 9999 SCT026 PROB30 TEMPO 2806/2810 4000 -SHRA FEW023TCU

Weather observations and forecasts of more than 4000 airports (METAR and TAF reports).

The available stations are represented by yellow and red dots on the map.

Hover mouse over dot to see the name of the station.

Then click to see weather observations and forecasts.

To change the map : click on the green buttons with a black cross to zoom in, on the green button with a dash to zoom out, or on the green arrows for adjacent maps.


METAR-TAF: